createdAt,value
2022-08-09T00:01:54.893Z,23.90
2022-08-09T00:05:03.349Z,23.89
2022-08-09T00:08:32.626Z,23.88
2022-08-09T00:12:04.010Z,23.88
2022-08-09T00:15:06.332Z,23.88
2022-08-09T00:18:12.546Z,23.88
2022-08-09T00:21:17.838Z,23.88
2022-08-09T00:24:20.862Z,23.87
2022-08-09T00:27:23.875Z,23.86
2022-08-09T00:30:31.048Z,23.87
2022-08-09T00:33:50.326Z,23.86
2022-08-09T00:36:54.403Z,23.86
2022-08-09T00:40:13.019Z,23.87
2022-08-09T00:44:12.957Z,23.87
2022-08-09T00:46:55.639Z,23.87
2022-08-09T00:50:02.533Z,23.86
2022-08-09T00:53:10.601Z,23.86
2022-08-09T00:56:15.203Z,23.86
2022-08-09T00:59:31.662Z,23.86
2022-08-09T01:02:47.688Z,23.85
2022-08-09T01:06:03.935Z,23.85
2022-08-09T01:09:36.642Z,23.85
2022-08-09T01:12:44.024Z,23.84
2022-08-09T01:15:52.657Z,23.85
2022-08-09T01:19:01.962Z,23.84
2022-08-09T01:22:28.495Z,23.85
2022-08-09T01:25:53.707Z,23.85
2022-08-09T01:29:00.438Z,23.84
2022-08-09T01:32:29.525Z,23.83
2022-08-09T01:35:38.327Z,23.83
2022-08-09T01:38:46.653Z,23.83
2022-08-09T01:41:53.437Z,23.83
2022-08-09T01:45:01.701Z,23.84
2022-08-09T01:48:06.323Z,23.82
2022-08-09T01:51:11.415Z,23.82
2022-08-09T01:54:32.630Z,23.80
2022-08-09T01:57:40.075Z,23.81
2022-08-09T02:00:50.700Z,23.81
2022-08-09T02:03:56.526Z,23.81
2022-08-09T02:07:18.300Z,23.81
2022-08-09T02:10:36.723Z,23.82
2022-08-09T02:13:41.840Z,23.81
2022-08-09T02:17:00.043Z,23.81
2022-08-09T02:20:15.928Z,23.80
2022-08-09T02:23:40.128Z,23.80
2022-08-09T02:26:47.342Z,23.80
2022-08-09T02:29:54.136Z,23.80
2022-08-09T02:33:02.068Z,23.80
2022-08-09T02:36:10.501Z,23.79
2022-08-09T02:39:33.801Z,23.81
2022-08-09T02:42:46.439Z,23.79
2022-08-09T02:45:55.396Z,23.79
2022-08-09T02:49:04.258Z,23.80
2022-08-09T02:52:10.447Z,23.79
2022-08-09T02:55:15.896Z,23.78
2022-08-09T02:58:35.611Z,23.80
2022-08-09T03:01:42.767Z,23.79
2022-08-09T03:05:05.730Z,23.79
2022-08-09T03:08:11.785Z,23.79
2022-08-09T03:12:04.667Z,23.78
2022-08-09T03:14:41.403Z,23.78
2022-08-09T03:17:46.178Z,23.77
2022-08-09T03:21:04.449Z,23.77
2022-08-09T03:24:10.067Z,23.76
2022-08-09T03:27:17.043Z,23.77
2022-08-09T03:30:29.645Z,23.77
2022-08-09T03:33:53.359Z,23.77
2022-08-09T03:37:10.777Z,23.78
2022-08-09T03:40:24.642Z,23.77
2022-08-09T03:43:31.643Z,23.78
2022-08-09T03:46:35.481Z,23.79
2022-08-09T03:49:42.080Z,23.78
2022-08-09T03:53:04.507Z,23.78
2022-08-09T03:56:09.651Z,23.77
2022-08-09T03:59:20.790Z,23.77
2022-08-09T04:02:30.173Z,23.77
2022-08-09T04:05:33.875Z,23.77
2022-08-09T04:08:46.693Z,23.77
2022-08-09T04:12:29.986Z,23.76
2022-08-09T04:16:17.124Z,23.75
2022-08-09T04:18:57.847Z,23.75
2022-08-09T04:22:01.363Z,23.75
2022-08-09T04:25:07.162Z,23.75
2022-08-09T04:28:12.384Z,23.74
2022-08-09T04:31:15.551Z,23.75
2022-08-09T04:34:31.614Z,23.74
2022-08-09T04:37:45.770Z,23.75
2022-08-09T04:40:56.474Z,23.74
2022-08-09T04:44:06.915Z,23.74
2022-08-09T04:47:12.770Z,23.72
2022-08-09T04:50:19.781Z,23.73
2022-08-09T04:53:27.654Z,23.72
2022-08-09T04:56:35.815Z,23.72
2022-08-09T04:59:39.473Z,23.72
2022-08-09T05:02:44.286Z,23.72
2022-08-09T05:06:07.104Z,23.73
2022-08-09T05:09:10.764Z,23.74
2022-08-09T05:12:16.877Z,23.73
2022-08-09T05:15:24.561Z,23.74
2022-08-09T05:18:57.604Z,23.74
2022-08-09T05:22:02.576Z,23.75
2022-08-09T05:25:06.890Z,23.74
2022-08-09T05:28:13.483Z,23.73
2022-08-09T05:31:16.546Z,23.72
2022-08-09T05:34:45.662Z,23.72
2022-08-09T05:37:50.273Z,23.71
2022-08-09T05:40:53.490Z,23.71
2022-08-09T05:43:57.866Z,23.72
2022-08-09T05:47:01.256Z,23.71
2022-08-09T05:50:32.270Z,23.72
2022-08-09T05:53:33.387Z,23.71
2022-08-09T05:56:37.642Z,23.72
2022-08-09T05:59:59.255Z,23.73
2022-08-09T06:03:04.419Z,23.73
2022-08-09T06:06:14.013Z,23.71
2022-08-09T06:09:53.825Z,23.71
2022-08-09T06:12:40.739Z,23.71
2022-08-09T06:15:47.236Z,23.70
2022-08-09T06:18:54.991Z,23.69
2022-08-09T06:21:58.887Z,23.69
2022-08-09T06:25:02.265Z,23.68
2022-08-09T06:28:07.704Z,23.68
2022-08-09T06:31:12.923Z,23.67
2022-08-09T06:34:16.002Z,23.67
2022-08-09T06:37:20.030Z,23.67
2022-08-09T06:40:24.427Z,23.67
2022-08-09T06:43:34.083Z,23.67
2022-08-09T06:46:41.027Z,23.67
2022-08-09T06:50:14.643Z,23.67
2022-08-09T06:53:07.690Z,23.66
2022-08-09T06:56:14.473Z,23.66
2022-08-09T07:00:54.739Z,23.66
2022-08-09T07:02:42.510Z,23.68
2022-08-09T07:05:58.523Z,23.69
2022-08-09T07:09:07.999Z,23.69
2022-08-09T07:12:38.616Z,23.71
2022-08-09T07:16:38.865Z,23.71
2022-08-09T07:19:10.825Z,23.72
2022-08-09T07:22:34.397Z,23.73
2022-08-09T07:25:42.682Z,23.75
2022-08-09T07:29:08.121Z,23.75
2022-08-09T07:32:09.715Z,23.77
2022-08-09T07:35:15.055Z,23.74
2022-08-09T07:38:18.192Z,23.71
2022-08-09T07:41:22.518Z,23.71
2022-08-09T07:44:52.540Z,23.72
2022-08-09T07:48:00.717Z,23.71
2022-08-09T07:52:03.696Z,23.76
2022-08-09T07:54:32.108Z,23.73
2022-08-09T07:57:36.226Z,23.75
2022-08-09T08:00:58.690Z,23.78
2022-08-09T08:04:03.582Z,23.72
2022-08-09T08:07:15.371Z,23.69
2022-08-09T08:10:34.298Z,23.71
2022-08-09T08:13:44.917Z,23.71
2022-08-09T08:17:07.436Z,23.73
2022-08-09T08:20:13.725Z,23.75
2022-08-09T08:23:18.698Z,23.76
2022-08-09T08:26:26.540Z,23.78
2022-08-09T08:29:45.311Z,23.80
2022-08-09T08:32:53.973Z,23.81
2022-08-09T08:35:59.663Z,23.81
2022-08-09T08:39:05.788Z,23.82
2022-08-09T08:42:09.434Z,23.82
2022-08-09T08:45:14.224Z,23.91
2022-08-09T08:48:19.587Z,23.88
2022-08-09T08:51:23.847Z,23.89
2022-08-09T08:54:30.320Z,23.87
2022-08-09T08:57:34.965Z,23.84
2022-08-09T09:00:39.030Z,23.80
2022-08-09T09:03:43.746Z,23.81
2022-08-09T09:06:52.595Z,23.82
2022-08-09T09:10:04.541Z,23.85
2022-08-09T09:13:09.745Z,23.84
2022-08-09T09:16:18.591Z,23.87
2022-08-09T09:19:42.073Z,23.89
2022-08-09T09:22:56.374Z,23.93
2022-08-09T09:26:11.853Z,23.96
2022-08-09T09:29:17.173Z,23.97
2022-08-09T09:32:35.055Z,23.97
2022-08-09T09:36:02.884Z,23.98
2022-08-09T09:39:10.792Z,23.99
2022-08-09T09:42:25.940Z,24.01
2022-08-09T09:45:29.543Z,24.02
2022-08-09T09:48:34.850Z,24.03
2022-08-09T09:51:40.396Z,24.05
2022-08-09T09:54:48.691Z,24.06
2022-08-09T09:58:16.371Z,24.07
2022-08-09T10:01:30.302Z,24.10
2022-08-09T10:04:42.111Z,24.13
2022-08-09T10:08:01.184Z,24.14
2022-08-09T10:12:01.446Z,24.15
2022-08-09T10:14:43.952Z,24.17
2022-08-09T10:17:56.461Z,24.17
2022-08-09T10:21:08.017Z,24.19
2022-08-09T10:24:16.102Z,24.20
2022-08-09T10:27:34.755Z,24.22
2022-08-09T10:34:10.761Z,24.23
2022-08-09T10:37:30.667Z,24.24
2022-08-09T10:40:44.758Z,24.26
2022-08-09T10:43:59.803Z,24.27
2022-08-09T10:48:26.132Z,24.29
2022-08-09T10:51:41.292Z,24.31
2022-08-09T10:54:45.260Z,24.33
2022-08-09T10:57:51.669Z,24.32
2022-08-09T11:03:01.902Z,24.33
2022-08-09T11:04:30.296Z,24.32
2022-08-09T11:07:55.017Z,24.32
2022-08-09T11:11:00.685Z,24.34
2022-08-09T11:14:41.850Z,24.37
2022-08-09T11:17:53.309Z,24.41
2022-08-09T11:20:58.339Z,24.40
2022-08-09T11:24:01.667Z,24.37
2022-08-09T11:28:03.221Z,24.35
2022-08-09T11:30:54.615Z,24.34
2022-08-09T11:33:59.329Z,24.33
2022-08-09T11:37:07.129Z,24.32
2022-08-09T11:40:13.312Z,24.29
2022-08-09T11:43:39.662Z,24.29
2022-08-09T11:46:53.226Z,24.32
2022-08-09T11:50:55.503Z,24.32
2022-08-09T11:53:58.899Z,24.30
2022-08-09T11:56:53.063Z,24.31
2022-08-09T11:59:56.780Z,24.32
2022-08-09T12:03:31.867Z,24.38
2022-08-09T12:06:32.073Z,24.38
2022-08-09T12:09:37.918Z,24.41
2022-08-09T12:12:49.250Z,24.42
2022-08-09T12:16:01.583Z,24.41
2022-08-09T12:19:09.600Z,24.40
2022-08-09T12:22:14.682Z,24.44
2022-08-09T12:25:36.307Z,24.47
2022-08-09T12:29:10.284Z,24.51
2022-08-09T12:32:11.606Z,24.53
2022-08-09T12:35:19.316Z,24.54
2022-08-09T12:38:38.238Z,24.56
2022-08-09T12:41:43.510Z,24.58
2022-08-09T12:44:52.311Z,24.58
2022-08-09T12:47:58.022Z,24.61
2022-08-09T12:51:04.442Z,24.62
2022-08-09T12:54:08.639Z,24.60
2022-08-09T12:57:13.279Z,24.59
2022-08-09T13:00:18.937Z,24.64
2022-08-09T13:03:52.683Z,24.67
2022-08-09T13:06:54.142Z,24.71
2022-08-09T13:10:03.415Z,24.71
2022-08-09T13:13:11.253Z,24.69
2022-08-09T13:16:17.506Z,24.68
2022-08-09T13:20:07.429Z,24.67
2022-08-09T13:23:01.919Z,24.70
2022-08-09T13:26:13.486Z,24.69
2022-08-09T13:29:20.636Z,24.67
2022-08-09T13:32:48.556Z,24.67
2022-08-09T13:36:24.080Z,24.68
2022-08-09T13:41:56.657Z,24.69
2022-08-09T13:42:39.061Z,24.68
2022-08-09T13:46:42.532Z,24.67
2022-08-09T13:49:07.973Z,24.71
2022-08-09T13:52:21.703Z,24.69
2022-08-09T13:55:24.850Z,24.69
2022-08-09T13:58:32.196Z,24.68
2022-08-09T14:01:56.041Z,24.69
2022-08-09T14:05:00.600Z,24.70
2022-08-09T14:08:05.583Z,24.69
2022-08-09T14:11:09.857Z,24.70
2022-08-09T14:14:25.856Z,24.72
2022-08-09T14:18:01.657Z,24.73
2022-08-09T14:20:55.425Z,24.74
2022-08-09T14:24:01.106Z,24.75
2022-08-09T14:27:19.742Z,24.75
2022-08-09T14:30:36.802Z,24.75
2022-08-09T14:33:47.165Z,24.78
2022-08-09T14:36:57.601Z,24.78
2022-08-09T14:40:02.559Z,24.79
2022-08-09T14:43:06.926Z,24.81
2022-08-09T14:46:51.325Z,24.81
2022-08-09T14:49:40.086Z,24.82
2022-08-09T14:52:58.294Z,24.83
2022-08-09T14:56:01.455Z,24.82
2022-08-09T14:59:05.976Z,24.83
2022-08-09T15:02:17.603Z,24.83
2022-08-09T15:05:24.963Z,24.82
2022-08-09T15:08:42.170Z,24.84
2022-08-09T15:11:54.361Z,24.82
2022-08-09T15:14:57.660Z,24.81
2022-08-09T15:18:02.088Z,24.83
2022-08-09T15:21:55.327Z,24.81
2022-08-09T15:24:30.039Z,24.81
2022-08-09T15:27:47.624Z,24.79
2022-08-09T15:31:10.078Z,24.79
2022-08-09T15:34:33.930Z,24.79
2022-08-09T15:37:57.012Z,24.78
2022-08-09T15:41:09.589Z,24.77
2022-08-09T15:44:14.199Z,24.76
2022-08-09T15:47:31.802Z,24.75
2022-08-09T15:50:48.138Z,24.74
2022-08-09T15:54:05.417Z,24.74
2022-08-09T15:57:15.324Z,24.74
2022-08-09T16:00:26.092Z,24.75
2022-08-09T16:03:38.720Z,24.75
2022-08-09T16:06:50.505Z,24.76
2022-08-09T16:10:04.154Z,24.77
2022-08-09T16:13:21.057Z,24.78
2022-08-09T16:16:32.169Z,24.79
2022-08-09T16:19:36.715Z,24.82
2022-08-09T16:22:48.636Z,24.84
2022-08-09T16:25:53.410Z,24.87
2022-08-09T16:29:11.355Z,24.90
2022-08-09T16:32:33.396Z,24.89
2022-08-09T16:35:56.925Z,24.91
2022-08-09T16:39:02.992Z,24.90
2022-08-09T16:42:08.789Z,24.92
2022-08-09T16:45:19.896Z,24.92
2022-08-09T16:48:42.505Z,24.93
2022-08-09T16:51:55.280Z,24.94
2022-08-09T16:54:59.119Z,24.95
2022-08-09T16:58:08.505Z,24.94
2022-08-09T17:01:13.432Z,24.94
2022-08-09T17:04:25.681Z,24.94
2022-08-09T17:08:44.165Z,24.93
2022-08-09T17:10:52.751Z,24.92
2022-08-09T17:14:01.039Z,24.92
2022-08-09T17:17:23.734Z,24.91
2022-08-09T17:20:37.544Z,24.91
2022-08-09T17:24:27.204Z,24.90
2022-08-09T17:27:14.981Z,24.89
2022-08-09T17:30:20.530Z,24.89
2022-08-09T17:33:24.061Z,24.89
2022-08-09T17:36:27.121Z,24.87
2022-08-09T17:39:52.594Z,24.86
2022-08-09T17:42:55.725Z,24.86
2022-08-09T17:46:06.646Z,24.84
2022-08-09T17:49:10.434Z,24.83
2022-08-09T17:52:22.323Z,24.81
2022-08-09T17:55:47.080Z,24.79
2022-08-09T17:58:48.881Z,24.79
2022-08-09T18:02:06.198Z,24.78
2022-08-09T18:05:15.754Z,24.77
2022-08-09T18:08:18.914Z,24.76
2022-08-09T18:11:25.409Z,24.75
2022-08-09T18:14:30.047Z,24.74
2022-08-09T18:18:02.829Z,24.74
2022-08-09T18:21:12.288Z,24.73
2022-08-09T18:24:23.214Z,24.73
2022-08-09T18:28:02.205Z,24.72
2022-08-09T18:30:54.106Z,24.72
2022-08-09T18:33:58.512Z,24.71
2022-08-09T18:37:03.098Z,24.70
2022-08-09T18:40:08.204Z,24.68
2022-08-09T18:43:12.635Z,24.67
2022-08-09T18:46:46.279Z,24.66
2022-08-09T18:49:46.267Z,24.66
2022-08-09T18:52:50.965Z,24.65
2022-08-09T18:55:57.240Z,24.65
2022-08-09T18:59:08.481Z,24.64
2022-08-09T19:02:14.875Z,24.64
2022-08-09T19:05:58.655Z,24.62
2022-08-09T19:08:54.870Z,24.62
2022-08-09T19:12:07.619Z,24.60
2022-08-09T19:15:13.407Z,24.59
2022-08-09T19:18:34.914Z,24.59
2022-08-09T19:21:52.400Z,24.59
2022-08-09T19:25:11.816Z,24.58
2022-08-09T19:28:29.498Z,24.57
2022-08-09T19:31:45.273Z,24.59
2022-08-09T19:34:49.766Z,24.58
2022-08-09T19:37:58.546Z,24.57
2022-08-09T19:41:02.707Z,24.58
2022-08-09T19:44:06.005Z,24.58
2022-08-09T19:47:09.253Z,24.59
2022-08-09T19:50:50.749Z,24.62
2022-08-09T19:53:45.485Z,24.63
2022-08-09T19:56:51.314Z,24.63
2022-08-09T20:00:06.446Z,24.62
2022-08-09T20:04:17.443Z,24.63
2022-08-09T20:06:36.065Z,24.63
2022-08-09T20:09:44.416Z,24.63
2022-08-09T20:12:48.502Z,24.63
2022-08-09T20:16:34.844Z,24.63
2022-08-09T20:19:48.124Z,24.63
2022-08-09T20:22:44.619Z,24.63
2022-08-09T20:25:52.392Z,24.63
2022-08-09T20:28:56.289Z,24.63
2022-08-09T20:32:30.414Z,24.64
2022-08-09T20:35:25.063Z,24.64
2022-08-09T20:38:46.610Z,24.65
2022-08-09T20:41:52.634Z,24.64
2022-08-09T20:45:57.101Z,24.64
2022-08-09T20:48:24.255Z,24.63
2022-08-09T20:51:40.802Z,24.64
2022-08-09T20:54:52.648Z,24.64
2022-08-09T20:58:08.432Z,24.64
2022-08-09T21:01:35.377Z,24.64
2022-08-09T21:05:52.735Z,24.64
2022-08-09T21:08:06.975Z,24.65
2022-08-09T21:14:39.721Z,24.65
2022-08-09T21:18:21.118Z,24.66
2022-08-09T21:21:17.644Z,24.66
2022-08-09T21:24:28.978Z,24.66
2022-08-09T21:27:51.373Z,24.67
2022-08-09T21:30:57.566Z,24.67
2022-08-09T21:34:00.515Z,24.64
2022-08-09T21:37:18.487Z,24.62
2022-08-09T21:40:30.682Z,24.62
2022-08-09T21:43:56.648Z,24.60
2022-08-09T21:47:01.647Z,24.59
2022-08-09T21:50:07.467Z,24.58
2022-08-09T21:53:40.066Z,24.58
2022-08-09T21:56:54.106Z,24.57
2022-08-09T21:59:57.662Z,24.57
2022-08-09T22:03:05.865Z,24.57
2022-08-09T22:06:09.493Z,24.57
2022-08-09T22:09:14.099Z,24.58
2022-08-09T22:12:24.802Z,24.58
2022-08-09T22:15:35.338Z,24.57
2022-08-09T22:18:53.640Z,24.56
2022-08-09T22:21:57.767Z,24.54
2022-08-09T22:26:06.754Z,24.55
2022-08-09T22:28:32.589Z,24.53
2022-08-09T22:31:36.282Z,24.53
2022-08-09T22:34:41.490Z,24.51
2022-08-09T22:37:44.516Z,24.52
2022-08-09T22:40:49.068Z,24.51
2022-08-09T22:44:04.251Z,24.51
2022-08-09T22:48:10.515Z,24.52
2022-08-09T22:50:34.299Z,24.51
2022-08-09T22:53:58.762Z,24.52
2022-08-09T22:57:00.753Z,24.52
2022-08-09T23:00:06.336Z,24.51
2022-08-09T23:03:16.555Z,24.50
2022-08-09T23:06:58.528Z,24.50
2022-08-09T23:10:01.648Z,24.50
2022-08-09T23:13:05.009Z,24.49
2022-08-09T23:16:18.730Z,24.49
2022-08-09T23:19:21.702Z,24.47
2022-08-09T23:22:26.098Z,24.46
2022-08-09T23:25:29.330Z,24.47
2022-08-09T23:28:32.535Z,24.46
2022-08-09T23:31:35.803Z,24.46
2022-08-09T23:34:38.807Z,24.46
2022-08-09T23:37:43.202Z,24.47
2022-08-09T23:40:46.249Z,24.46
2022-08-09T23:43:49.211Z,24.45
2022-08-09T23:46:58.219Z,24.46
2022-08-09T23:50:01.207Z,24.44
2022-08-09T23:53:05.735Z,24.45
2022-08-09T23:56:09.084Z,24.45
2022-08-09T23:59:12.246Z,24.44
